createdAt,value
2022-11-13T00:02:05.620Z,13.85
2022-11-13T00:07:53.992Z,12.07
2022-11-13T00:11:05.190Z,12.88
2022-11-13T00:14:14.453Z,11.88
2022-11-13T00:17:23.475Z,12.75
2022-11-13T00:20:34.240Z,14.50
2022-11-13T00:23:43.997Z,13.32
2022-11-13T00:26:53.498Z,11.80
2022-11-13T00:30:02.907Z,12.20
2022-11-13T00:33:12.106Z,18.52
2022-11-13T00:36:26.072Z,16.70
2022-11-13T00:42:13.047Z,15.58
2022-11-13T00:48:01.350Z,12.95
2022-11-13T00:51:10.609Z,13.30
2022-11-13T00:54:20.308Z,11.90
2022-11-13T00:57:29.776Z,12.18
2022-11-13T01:00:40.132Z,12.45
2022-11-13T01:03:49.262Z,11.83
2022-11-13T01:06:58.664Z,12.20
2022-11-13T01:12:47.176Z,10.88
2022-11-13T01:15:56.545Z,10.88
2022-11-13T01:19:05.964Z,11.73
2022-11-13T01:22:15.985Z,9.73
2022-11-13T01:28:04.366Z,11.08
2022-11-13T01:31:16.821Z,11.80
2022-11-13T01:34:26.722Z,13.05
2022-11-13T01:40:16.549Z,13.00
2022-11-13T01:43:30.991Z,13.45
2022-11-13T01:46:42.319Z,12.37
2022-11-13T01:52:32.928Z,14.30
2022-11-13T01:58:21.611Z,13.22
2022-11-13T02:04:10.280Z,13.88
2022-11-13T02:07:21.711Z,12.23
2022-11-13T02:10:30.580Z,13.18
2022-11-13T02:16:19.199Z,13.10
2022-11-13T02:19:31.577Z,12.00
2022-11-13T02:22:44.123Z,12.25
2022-11-13T02:25:55.845Z,10.98
2022-11-13T02:29:04.922Z,12.33
2022-11-13T02:32:14.507Z,12.58
2022-11-13T02:35:27.443Z,12.43
2022-11-13T02:38:38.838Z,11.93
2022-11-13T02:41:48.175Z,13.85
2022-11-13T02:44:57.424Z,12.80
2022-11-13T02:48:08.160Z,13.18
2022-11-13T02:51:17.300Z,13.08
2022-11-13T02:54:26.508Z,14.83
2022-11-13T02:57:36.134Z,14.03
2022-11-13T03:00:45.992Z,14.33
2022-11-13T03:03:57.792Z,14.03
2022-11-13T03:07:07.917Z,14.33
2022-11-13T03:12:56.667Z,11.85
2022-11-13T03:18:51.992Z,13.18
2022-11-13T03:24:40.199Z,12.47
2022-11-13T03:27:49.436Z,13.48
2022-11-13T03:30:58.881Z,12.55
2022-11-13T03:34:07.937Z,12.28
2022-11-13T03:37:17.070Z,10.60
2022-11-13T03:43:05.544Z,11.22
2022-11-13T03:46:14.547Z,12.73
2022-11-13T03:49:23.517Z,12.00
2022-11-13T03:52:32.971Z,11.88
2022-11-13T03:58:21.792Z,12.63
2022-11-13T04:01:30.997Z,11.55
2022-11-13T04:07:21.791Z,11.95
2022-11-13T04:10:30.951Z,12.80
2022-11-13T04:13:40.347Z,12.47
2022-11-13T04:16:49.709Z,10.93
2022-11-13T04:19:59.049Z,11.50
2022-11-13T04:23:10.626Z,12.30
2022-11-13T04:26:19.577Z,10.25
2022-11-13T04:29:29.150Z,9.53
2022-11-13T04:32:38.730Z,9.18
2022-11-13T04:38:27.185Z,11.38
2022-11-13T04:41:55.622Z,9.30
2022-11-13T04:47:43.788Z,12.15
2022-11-13T04:50:53.078Z,11.18
2022-11-13T04:54:02.459Z,13.05
2022-11-13T04:57:12.076Z,10.00
2022-11-13T05:03:01.203Z,10.75
2022-11-13T05:06:12.272Z,11.03
2022-11-13T05:09:21.713Z,9.18
2022-11-13T05:12:31.159Z,10.68
2022-11-13T05:18:19.524Z,9.98
2022-11-13T05:21:28.780Z,10.45
2022-11-13T05:24:37.955Z,9.60
2022-11-13T05:27:47.013Z,10.40
2022-11-13T05:33:35.535Z,8.95
2022-11-13T05:36:44.741Z,9.70
2022-11-13T05:39:53.675Z,8.00
2022-11-13T05:43:03.165Z,9.50
2022-11-13T05:46:15.601Z,10.88
2022-11-13T05:49:25.129Z,9.03
2022-11-13T05:52:34.671Z,9.33
2022-11-13T05:58:22.791Z,11.63
2022-11-13T06:01:34.260Z,12.33
2022-11-13T06:04:43.288Z,11.85
2022-11-13T06:07:52.696Z,11.12
2022-11-13T06:11:03.528Z,11.53
2022-11-13T06:14:12.764Z,13.62
2022-11-13T06:17:22.061Z,15.18
2022-11-13T06:20:31.509Z,12.43
2022-11-13T06:23:41.659Z,11.63
2022-11-13T06:26:50.944Z,12.68
2022-11-13T06:32:38.851Z,14.00
2022-11-13T06:38:26.906Z,10.90
2022-11-13T06:41:36.696Z,9.65
2022-11-13T06:47:25.564Z,10.65
2022-11-13T06:50:34.624Z,11.90
2022-11-13T06:53:44.919Z,11.78
2022-11-13T06:56:54.337Z,11.28
2022-11-13T07:00:03.747Z,12.13
2022-11-13T07:03:19.258Z,10.30
2022-11-13T07:06:28.537Z,14.73
2022-11-13T07:09:40.887Z,11.95
2022-11-13T07:12:54.511Z,13.00
2022-11-13T07:16:15.810Z,14.35
2022-11-13T07:19:21.233Z,14.80
2022-11-13T07:22:32.483Z,13.28
2022-11-13T09:02:01.062Z,19.15
2022-11-13T09:05:11.370Z,16.02
2022-11-13T09:08:21.041Z,15.95
2022-11-13T09:11:30.722Z,16.20
2022-11-13T09:14:39.866Z,15.85
2022-11-13T09:17:49.581Z,15.30
2022-11-13T09:21:03.730Z,14.68
2022-11-13T09:24:16.958Z,15.78
2022-11-13T09:27:26.375Z,16.55
2022-11-13T09:30:41.598Z,16.60
2022-11-13T09:33:51.369Z,16.93
2022-11-13T09:37:00.965Z,15.63
2022-11-13T09:40:15.577Z,17.15
2022-11-13T09:43:32.312Z,17.55
2022-11-13T09:49:28.532Z,18.30
2022-11-13T09:52:41.115Z,15.55
2022-11-13T09:55:56.262Z,17.75
2022-11-13T09:59:10.044Z,16.95
2022-11-13T10:02:27.044Z,17.57
2022-11-13T10:05:39.473Z,17.60
2022-11-13T10:08:54.924Z,17.55
2022-11-13T10:12:08.426Z,18.07
2022-11-13T10:15:19.471Z,16.85
2022-11-13T10:21:16.604Z,17.37
2022-11-13T10:24:28.643Z,17.07
2022-11-13T10:27:37.938Z,17.70
2022-11-13T10:33:28.935Z,16.82
2022-11-13T10:36:41.813Z,18.95
2022-11-13T10:39:51.106Z,17.12
2022-11-13T10:43:14.294Z,18.37
2022-11-13T10:46:25.534Z,16.17
2022-11-13T10:49:34.568Z,15.78
2022-11-13T10:52:50.378Z,15.63
2022-11-13T10:58:38.611Z,16.52
2022-11-13T11:01:51.958Z,18.30
2022-11-13T11:07:44.094Z,18.65
2022-11-13T11:13:36.019Z,21.45
2022-11-13T11:16:46.985Z,17.25
2022-11-13T11:22:40.221Z,18.65
2022-11-13T11:28:36.889Z,17.02
2022-11-13T11:31:51.301Z,17.37
2022-11-13T11:37:43.186Z,19.40
2022-11-13T11:43:41.634Z,17.70
2022-11-13T11:46:51.440Z,17.12
2022-11-13T11:52:47.825Z,17.75
2022-11-13T11:56:14.025Z,19.67
2022-11-13T11:59:47.377Z,18.07
2022-11-13T12:03:22.279Z,19.85
2022-11-13T12:06:38.395Z,18.50
2022-11-13T12:09:52.129Z,19.00
2022-11-13T12:15:46.222Z,17.02
2022-11-13T12:21:44.732Z,20.40
2022-11-13T12:27:42.119Z,19.42
2022-11-13T12:30:57.404Z,18.00
2022-11-13T12:34:11.401Z,18.52
2022-11-13T12:37:24.048Z,16.32
2022-11-13T12:40:42.913Z,14.20
2022-11-13T12:44:00.499Z,12.33
2022-11-13T12:47:10.947Z,9.73
2022-11-13T12:53:07.040Z,13.65
2022-11-13T12:56:32.843Z,12.73
2022-11-13T12:59:44.570Z,13.18
2022-11-13T13:03:03.563Z,12.37
2022-11-13T13:06:22.615Z,14.10
2022-11-13T13:09:43.577Z,13.93
2022-11-13T13:12:56.269Z,12.43
2022-11-13T13:18:43.649Z,12.55
2022-11-13T13:21:53.064Z,13.60
2022-11-13T13:25:09.374Z,13.05
2022-11-13T13:28:23.959Z,13.50
2022-11-13T13:34:32.316Z,14.03
2022-11-13T13:37:44.063Z,15.23
2022-11-13T13:41:01.844Z,13.00
2022-11-13T13:44:28.090Z,12.80
2022-11-13T13:47:39.899Z,12.80
2022-11-13T13:50:54.265Z,13.48
2022-11-13T13:54:06.720Z,13.93
2022-11-13T13:57:18.027Z,12.63
2022-11-13T14:03:05.856Z,12.98
2022-11-13T14:06:22.949Z,13.03
2022-11-13T14:09:33.036Z,14.68
2022-11-13T14:15:29.720Z,14.63
2022-11-13T14:18:39.367Z,13.72
2022-11-13T14:21:50.779Z,14.87
2022-11-13T14:25:02.339Z,13.53
2022-11-13T14:28:17.608Z,16.35
2022-11-13T14:31:31.810Z,15.32
2022-11-13T14:34:45.989Z,12.88
2022-11-13T14:40:35.831Z,14.40
2022-11-13T14:43:51.457Z,14.40
2022-11-13T14:49:47.384Z,14.18
2022-11-13T14:53:02.059Z,13.83
2022-11-13T14:58:50.623Z,13.50
2022-11-13T15:02:00.723Z,13.55
2022-11-13T15:07:50.427Z,14.58
2022-11-13T15:10:59.948Z,15.10
2022-11-13T15:14:14.183Z,14.95
2022-11-13T15:17:24.891Z,13.83
2022-11-13T15:20:34.797Z,15.23
2022-11-13T15:23:44.569Z,15.55
2022-11-13T15:26:54.078Z,15.38
2022-11-13T15:30:03.605Z,16.12
2022-11-13T15:33:16.536Z,14.63
2022-11-13T15:36:26.725Z,14.05
2022-11-13T15:39:36.443Z,15.43
2022-11-13T15:42:46.300Z,16.30
2022-11-13T15:45:57.046Z,15.63
2022-11-13T15:49:06.826Z,16.02
2022-11-13T15:52:16.466Z,16.75
2022-11-13T15:55:30.830Z,15.23
2022-11-13T16:01:21.022Z,17.40
2022-11-13T16:04:54.503Z,14.85
2022-11-13T16:07:42.528Z,14.25
2022-11-13T16:10:52.365Z,14.50
2022-11-13T16:14:02.193Z,15.53
2022-11-13T16:17:16.728Z,18.40
2022-11-13T16:20:26.019Z,18.00
2022-11-13T16:23:35.401Z,18.02
2022-11-13T16:26:47.866Z,19.37
2022-11-13T16:30:01.046Z,18.87
2022-11-13T16:33:10.662Z,13.93
2022-11-13T16:36:21.699Z,16.15
2022-11-13T16:39:31.294Z,18.35
2022-11-13T16:42:40.748Z,14.98
2022-11-13T16:48:35.498Z,16.07
2022-11-13T16:51:44.909Z,18.65
2022-11-13T16:57:34.645Z,16.85
2022-11-13T17:00:43.913Z,17.07
2022-11-13T17:03:54.653Z,22.37
2022-11-13T17:07:04.188Z,17.82
2022-11-13T17:12:53.827Z,18.40
2022-11-13T17:16:03.967Z,18.75
2022-11-13T17:19:15.385Z,17.37
2022-11-13T17:22:25.047Z,15.95
2022-11-13T17:25:34.763Z,14.25
2022-11-13T17:28:44.268Z,16.62
2022-11-13T17:31:53.734Z,16.65
2022-11-13T17:40:28.931Z,17.80
2022-11-13T17:43:38.733Z,19.65
2022-11-13T17:46:50.472Z,17.82
2022-11-13T17:50:05.664Z,16.30
2022-11-13T17:53:10.774Z,19.20
2022-11-13T17:58:58.847Z,18.25
2022-11-13T18:02:09.256Z,17.65
2022-11-13T18:05:19.250Z,19.60
2022-11-13T18:08:28.769Z,18.30
2022-11-13T18:14:19.056Z,20.43
2022-11-13T18:17:28.707Z,21.50
2022-11-13T18:23:15.851Z,21.48
2022-11-13T18:29:05.570Z,17.70
2022-11-13T18:32:15.536Z,16.50
2022-11-13T18:35:25.004Z,20.70
2022-11-13T18:38:34.454Z,18.27
2022-11-13T18:41:44.049Z,16.02
2022-11-13T18:44:53.655Z,17.60
2022-11-13T18:48:03.302Z,15.98
2022-11-13T18:51:14.858Z,17.95
2022-11-13T18:54:24.615Z,19.62
2022-11-13T18:57:34.571Z,19.52
2022-11-13T19:00:43.900Z,17.57
2022-11-13T19:04:20.923Z,17.30
2022-11-13T19:07:05.864Z,17.57
2022-11-13T19:10:16.153Z,18.45
2022-11-13T19:13:25.949Z,18.27
2022-11-13T19:16:37.606Z,20.05
2022-11-13T19:22:26.388Z,20.17
2022-11-13T19:28:13.750Z,18.52
2022-11-13T19:31:25.599Z,15.30
2022-11-13T19:34:35.007Z,16.15
2022-11-13T19:37:44.657Z,13.75
2022-11-13T19:43:39.055Z,13.98
2022-11-13T19:49:27.789Z,18.40
2022-11-13T19:52:37.141Z,18.70
2022-11-13T19:55:56.146Z,16.15
2022-11-13T19:59:05.622Z,20.12
2022-11-13T20:02:15.336Z,15.95
2022-11-13T20:08:02.781Z,16.95
2022-11-13T20:11:14.545Z,14.40
2022-11-13T20:14:23.773Z,14.70
2022-11-13T20:17:33.161Z,12.95
2022-11-13T20:20:46.689Z,13.40
2022-11-13T20:24:06.921Z,15.10
2022-11-13T20:27:16.131Z,14.07
2022-11-13T20:30:25.604Z,17.42
2022-11-13T20:33:35.975Z,18.07
2022-11-13T20:36:45.260Z,14.98
2022-11-13T20:39:54.832Z,14.83
2022-11-13T20:43:04.513Z,15.00
2022-11-13T20:46:15.817Z,20.95
2022-11-13T20:49:25.325Z,19.02
2022-11-13T20:52:34.676Z,19.10
2022-11-13T20:58:24.680Z,17.27
2022-11-13T21:04:13.634Z,18.32
2022-11-13T21:07:22.647Z,17.70
2022-11-13T21:13:11.384Z,20.52
2022-11-13T21:19:01.892Z,20.23
2022-11-13T21:22:11.276Z,18.27
2022-11-13T21:28:06.737Z,25.15
2022-11-13T21:31:17.811Z,21.90
2022-11-13T21:34:27.366Z,21.45
2022-11-13T21:37:37.588Z,18.95
2022-11-13T21:40:48.585Z,20.32
2022-11-13T21:44:00.685Z,18.67
2022-11-13T21:47:12.049Z,20.97
2022-11-13T21:50:21.202Z,21.50
2022-11-13T21:53:30.846Z,20.65
2022-11-13T21:56:42.184Z,19.37
2022-11-13T21:59:51.378Z,19.52
2022-11-13T22:03:00.606Z,17.92
2022-11-13T22:06:21.688Z,19.02
2022-11-13T22:09:30.853Z,19.52
2022-11-13T22:12:40.421Z,17.32
2022-11-13T22:18:29.335Z,16.75
2022-11-13T22:21:39.953Z,17.75
2022-11-13T22:24:49.523Z,17.42
2022-11-13T22:28:00.823Z,17.23
2022-11-13T22:33:53.693Z,17.37
2022-11-13T22:36:59.867Z,17.85
2022-11-13T22:45:28.651Z,19.70
2022-11-13T22:48:38.930Z,19.50
2022-11-13T22:51:48.116Z,20.75
2022-11-13T22:57:38.237Z,17.77
2022-11-13T23:03:26.994Z,21.50
2022-11-13T23:06:37.203Z,18.12
2022-11-13T23:09:46.621Z,17.27
2022-11-13T23:12:55.787Z,17.90
2022-11-13T23:16:05.544Z,17.75
2022-11-13T23:19:15.258Z,16.75
2022-11-13T23:22:24.453Z,18.10
2022-11-13T23:25:36.088Z,16.00
2022-11-13T23:28:45.936Z,15.85
2022-11-13T23:34:57.947Z,17.75
2022-11-13T23:37:46.200Z,16.75
2022-11-13T23:41:00.668Z,15.55
2022-11-13T23:44:10.059Z,15.90
2022-11-13T23:47:19.190Z,17.25
2022-11-13T23:50:28.916Z,18.05
2022-11-13T23:53:38.134Z,14.85
2022-11-13T23:59:26.656Z,15.58
